This is the latest recevied weather packets stored in our database for station/object IZ0VWB-3. If no packets are shown the sender has not sent any weather packets the latest 1 day(s).
| Time | Temp. | Humidity | Pressure | Rain* | Wind** | Luminosity | Snow |
|---|---|---|---|---|---|---|---|
| 1778095421 | 15.56° C | 81% | 999.9 hPa | 0 mm | - | - | - |
| 1778093621 | 16.11° C | 79% | 999.5 hPa | 0 mm | - | - | - |
| 1778092420 | 16.11° C | 79% | 999.4 hPa | 0 mm | - | - | - |
| 1778091821 | 16.67° C | 79% | 999.4 hPa | 0 mm | - | - | - |
| 1778090620 | 16.67° C | 78% | 999.2 hPa | 0 mm | - | - | - |
| 1778089823 | 16.67° C | 78% | 999.3 hPa | 0 mm | - | - | - |
| 1778089224 | 16.67° C | 77% | 999.3 hPa | 0 mm | - | - | - |
| 1778088024 | 17.22° C | 77% | 999.4 hPa | 0 mm | - | - | - |
| 1778087424 | 17.22° C | 78% | 999.3 hPa | 0 mm | - | - | - |
| 1778085024 | 17.22° C | 78% | 999.2 hPa | 0 mm | - | - | - |
| 1778083823 | 17.22° C | 79% | 999.4 hPa | 0 mm | - | - | - |
| 1778082623 | 17.22° C | 78% | 999.4 hPa | 0 mm | - | - | - |
| 1778082024 | 17.22° C | 78% | 999.4 hPa | 0 mm | - | - | - |
| 1778080824 | 17.22° C | 77% | 999.3 hPa | 0 mm | - | - | - |
| 1778079637 | 17.78° C | 76% | 999.3 hPa | 0 mm | - | - | - |
| 1778078622 | 17.78° C | 77% | 999.2 hPa | 0 mm | - | - | - |
| 1778076821 | 18.33° C | 74% | 999.3 hPa | 0 mm | - | - | - |
| 1778073821 | 20° C | 69% | 999.4 hPa | 0 mm | - | - | - |
| 1778072621 | 19.44° C | 68% | 999.5 hPa | 0 mm | - | - | - |
| 1778071420 | 18.89° C | 66% | 999.8 hPa | 0 mm | - | - | - |
| 1778069020 | 20° C | 59% | 999.5 hPa | 0 mm | - | - | - |
| 1778067821 | 20° C | 58% | 999.5 hPa | 0 mm | - | - | - |
| 1778066619 | 20.56° C | 58% | 999.6 hPa | 0 mm | - | - | - |
| 1778065420 | 20° C | 61% | 999.8 hPa | 0 mm | - | - | - |
| 1778064821 | 20° C | 60% | 999.7 hPa | 0 mm | - | - | - |
* Rain latest hour (hover to see other rain measurements)
** Current wind speed in m/s (hover to see current wind gust speed)